createdAt,value
2022-10-18T00:00:11.659Z,14.50
2022-10-18T00:01:14.293Z,14.50
2022-10-18T00:02:17.163Z,14.50
2022-10-18T00:03:52.074Z,14.50
2022-10-18T00:04:54.696Z,14.56
2022-10-18T00:05:57.456Z,14.56
2022-10-18T00:07:32.120Z,14.56
2022-10-18T00:08:35.174Z,14.56
2022-10-18T00:09:37.833Z,14.56
2022-10-18T00:11:12.227Z,14.56
2022-10-18T00:12:15.002Z,14.56
2022-10-18T00:13:17.833Z,14.56
2022-10-18T00:14:52.296Z,14.56
2022-10-18T00:15:55.079Z,14.56
2022-10-18T00:16:57.737Z,14.56
2022-10-18T00:18:32.364Z,14.56
2022-10-18T00:19:35.162Z,14.50
2022-10-18T00:20:37.796Z,14.50
2022-10-18T00:22:12.433Z,14.50
2022-10-18T00:23:15.639Z,14.50
2022-10-18T00:24:18.296Z,14.50
2022-10-18T00:25:52.866Z,14.50
2022-10-18T00:26:55.587Z,14.50
2022-10-18T00:27:58.293Z,14.50
2022-10-18T00:29:33.042Z,14.44
2022-10-18T00:30:35.662Z,14.44
2022-10-18T00:31:38.442Z,14.44
2022-10-18T00:33:13.579Z,14.44
2022-10-18T00:34:16.350Z,14.44
2022-10-18T00:35:19.084Z,14.44
2022-10-18T00:36:53.661Z,14.44
2022-10-18T00:37:56.362Z,14.44
2022-10-18T00:38:59.015Z,14.38
2022-10-18T00:40:33.457Z,14.38
2022-10-18T00:41:36.118Z,14.38
2022-10-18T00:42:38.673Z,14.38
2022-10-18T00:44:13.141Z,14.38
2022-10-18T00:45:15.922Z,14.38
2022-10-18T00:46:18.607Z,14.38
2022-10-18T00:47:52.958Z,14.38
2022-10-18T00:48:55.678Z,14.38
2022-10-18T00:49:58.382Z,14.31
2022-10-18T00:51:32.870Z,14.31
2022-10-18T00:52:35.596Z,14.31
2022-10-18T00:53:38.227Z,14.31
2022-10-18T00:55:12.778Z,14.31
2022-10-18T00:56:15.420Z,14.31
2022-10-18T00:57:18.185Z,14.31
2022-10-18T00:58:52.932Z,14.31
2022-10-18T00:59:55.581Z,14.31
2022-10-18T01:00:11.965Z,14.31
2022-10-18T01:01:14.597Z,14.31
2022-10-18T01:02:23.651Z,14.25
2022-10-18T01:03:58.613Z,14.25
2022-10-18T01:05:01.430Z,14.25
2022-10-18T01:06:04.124Z,14.25
2022-10-18T01:07:38.739Z,14.25
2022-10-18T01:08:41.401Z,14.25
2022-10-18T01:09:44.049Z,14.25
2022-10-18T01:11:18.388Z,14.25
2022-10-18T01:12:21.112Z,14.25
2022-10-18T01:13:25.840Z,14.19
2022-10-18T01:15:00.417Z,14.19
2022-10-18T01:16:03.002Z,14.19
2022-10-18T01:17:05.655Z,14.19
2022-10-18T01:18:40.846Z,14.19
2022-10-18T01:19:43.474Z,14.19
2022-10-18T01:20:46.148Z,14.19
2022-10-18T01:22:20.537Z,14.13
2022-10-18T01:23:23.201Z,14.13
2022-10-18T01:24:25.904Z,14.13
2022-10-18T01:26:00.746Z,14.13
2022-10-18T01:27:03.432Z,14.13
2022-10-18T01:28:06.565Z,14.13
2022-10-18T01:29:41.593Z,14.13
2022-10-18T01:30:44.288Z,14.13
2022-10-18T01:31:46.949Z,14.13
2022-10-18T01:33:26.448Z,14.13
2022-10-18T01:34:29.248Z,14.13
2022-10-18T01:35:31.877Z,14.06
2022-10-18T01:37:06.279Z,14.06
2022-10-18T01:38:09.701Z,14.06
2022-10-18T01:39:12.302Z,14.06
2022-10-18T01:40:46.684Z,14.06
2022-10-18T01:41:56.059Z,14.06
2022-10-18T01:42:58.730Z,14.06
2022-10-18T01:44:33.287Z,14.00
2022-10-18T01:45:36.015Z,14.00
2022-10-18T01:46:38.721Z,14.00
2022-10-18T01:48:13.714Z,14.00
2022-10-18T01:49:16.369Z,14.00
2022-10-18T01:50:19.003Z,14.00
2022-10-18T01:51:53.590Z,14.00
2022-10-18T01:52:56.530Z,14.00
2022-10-18T01:53:59.175Z,14.00
2022-10-18T01:55:33.663Z,14.00
2022-10-18T01:56:36.937Z,14.00
2022-10-18T01:57:39.921Z,14.00
2022-10-18T01:59:14.371Z,14.00
2022-10-18T02:00:11.866Z,14.00
2022-10-18T02:01:14.655Z,14.00
2022-10-18T02:02:17.313Z,13.94
2022-10-18T02:03:52.357Z,13.94
2022-10-18T02:04:54.933Z,13.94
2022-10-18T02:05:57.579Z,13.94
2022-10-18T02:07:32.003Z,13.94
2022-10-18T02:09:03.817Z,13.94
2022-10-18T02:10:06.582Z,13.94
2022-10-18T02:11:41.102Z,13.94
2022-10-18T02:12:43.807Z,13.94
2022-10-18T02:13:46.432Z,13.94
2022-10-18T02:15:20.998Z,13.94
2022-10-18T02:16:23.643Z,13.94
2022-10-18T02:17:26.284Z,13.88
2022-10-18T02:19:00.707Z,13.88
2022-10-18T02:20:03.421Z,13.88
2022-10-18T02:21:06.008Z,13.88
2022-10-18T02:22:40.368Z,13.88
2022-10-18T02:23:42.950Z,13.88
2022-10-18T02:24:45.575Z,13.88
2022-10-18T02:26:20.177Z,13.88
2022-10-18T02:27:22.880Z,13.88
2022-10-18T02:28:25.740Z,13.88
2022-10-18T02:30:00.084Z,13.88
2022-10-18T02:31:02.771Z,13.88
2022-10-18T02:32:05.429Z,13.88
2022-10-18T02:33:40.678Z,13.88
2022-10-18T02:34:43.354Z,13.88
2022-10-18T02:35:45.988Z,13.88
2022-10-18T02:37:20.374Z,13.88
2022-10-18T02:38:24.120Z,13.88
2022-10-18T02:39:26.775Z,13.88
2022-10-18T02:41:01.251Z,13.88
2022-10-18T02:42:03.963Z,13.81
2022-10-18T02:43:07.054Z,13.81
2022-10-18T02:44:41.544Z,13.81
2022-10-18T02:45:44.250Z,13.81
2022-10-18T02:46:46.834Z,13.75
2022-10-18T02:48:21.170Z,13.75
2022-10-18T02:49:23.923Z,13.75
2022-10-18T02:50:26.677Z,13.75
2022-10-18T02:52:01.178Z,13.75
2022-10-18T02:53:03.899Z,13.69
2022-10-18T02:54:06.606Z,13.69
2022-10-18T02:55:40.938Z,13.69
2022-10-18T02:56:43.635Z,13.63
2022-10-18T02:57:46.315Z,13.63
2022-10-18T02:59:20.622Z,13.63
2022-10-18T03:00:11.815Z,13.63
2022-10-18T03:01:14.524Z,13.63
2022-10-18T03:02:17.801Z,13.56
2022-10-18T03:03:52.218Z,13.56
2022-10-18T03:04:55.131Z,13.56
2022-10-18T03:05:57.815Z,13.56
2022-10-18T03:07:32.647Z,13.56
2022-10-18T03:08:35.564Z,13.56
2022-10-18T03:09:38.204Z,13.56
2022-10-18T03:11:12.550Z,13.56
2022-10-18T03:12:15.252Z,13.56
2022-10-18T03:13:18.029Z,13.50
2022-10-18T03:14:53.514Z,13.50
2022-10-18T03:15:56.169Z,13.50
2022-10-18T03:16:58.879Z,13.50
2022-10-18T03:18:33.165Z,13.50
2022-10-18T03:19:35.967Z,13.50
2022-10-18T03:20:38.697Z,13.44
2022-10-18T03:22:13.188Z,13.50
2022-10-18T03:23:16.137Z,13.44
2022-10-18T03:24:18.847Z,13.44
2022-10-18T03:25:53.284Z,13.44
2022-10-18T03:26:55.955Z,13.44
2022-10-18T03:27:58.611Z,13.44
2022-10-18T03:29:33.482Z,13.44
2022-10-18T03:30:36.048Z,13.44
2022-10-18T03:31:38.807Z,13.44
2022-10-18T03:33:13.732Z,13.44
2022-10-18T03:34:16.537Z,13.44
2022-10-18T03:35:19.174Z,13.38
2022-10-18T03:36:53.677Z,13.38
2022-10-18T03:38:01.915Z,13.38
2022-10-18T03:39:04.634Z,13.38
2022-10-18T03:40:39.023Z,13.38
2022-10-18T03:41:41.708Z,13.38
2022-10-18T03:42:44.385Z,13.38
2022-10-18T03:44:18.889Z,13.31
2022-10-18T03:45:21.554Z,13.31
2022-10-18T03:46:28.472Z,13.31
2022-10-18T03:48:02.926Z,13.31
2022-10-18T03:49:05.488Z,13.31
2022-10-18T03:50:08.320Z,13.31
2022-10-18T03:51:42.621Z,13.31
2022-10-18T03:52:45.244Z,13.31
2022-10-18T03:53:47.905Z,13.38
2022-10-18T03:55:22.386Z,13.38
2022-10-18T03:56:25.249Z,13.31
2022-10-18T03:57:28.003Z,13.38
2022-10-18T03:59:02.775Z,13.38
2022-10-18T04:00:12.269Z,13.38
2022-10-18T04:01:15.037Z,13.38
2022-10-18T04:02:18.480Z,13.38
2022-10-18T04:03:58.620Z,13.38
2022-10-18T04:05:01.295Z,13.38
2022-10-18T04:05:43.172Z,13.38
2022-10-18T04:06:46.031Z,13.38
2022-10-18T04:07:48.725Z,13.38
2022-10-18T04:09:23.310Z,13.38
2022-10-18T04:10:26.025Z,13.38
2022-10-18T04:11:28.723Z,13.38
2022-10-18T04:13:03.802Z,13.38
2022-10-18T04:14:06.651Z,13.38
2022-10-18T04:15:09.346Z,13.38
2022-10-18T04:16:44.007Z,13.38
2022-10-18T04:17:46.592Z,13.38
2022-10-18T04:18:49.285Z,13.38
2022-10-18T04:20:23.755Z,13.38
2022-10-18T04:21:26.416Z,13.38
2022-10-18T04:22:29.199Z,13.38
2022-10-18T04:24:03.605Z,13.38
2022-10-18T04:25:06.345Z,13.38
2022-10-18T04:26:09.219Z,13.38
2022-10-18T04:27:43.673Z,13.38
2022-10-18T04:28:46.441Z,13.38
2022-10-18T04:29:49.918Z,13.38
2022-10-18T04:31:24.610Z,13.38
2022-10-18T04:32:27.207Z,13.38
2022-10-18T04:33:29.914Z,13.38
2022-10-18T04:35:04.494Z,13.38
2022-10-18T04:36:07.171Z,13.38
2022-10-18T04:37:09.836Z,13.38
2022-10-18T04:38:44.578Z,13.38
2022-10-18T04:39:49.949Z,13.38
2022-10-18T04:40:55.423Z,13.38
2022-10-18T04:42:29.938Z,13.38
2022-10-18T04:43:32.838Z,13.31
2022-10-18T04:44:35.698Z,13.31
2022-10-18T04:46:10.392Z,13.31
2022-10-18T04:47:13.045Z,13.31
2022-10-18T04:48:16.297Z,13.31
2022-10-18T04:49:50.757Z,13.25
2022-10-18T04:50:53.469Z,13.31
2022-10-18T04:51:56.187Z,13.25
2022-10-18T04:53:30.651Z,13.25
2022-10-18T04:54:33.385Z,13.25
2022-10-18T04:55:36.144Z,13.25
2022-10-18T04:57:10.607Z,13.25
2022-10-18T04:58:13.709Z,13.19
2022-10-18T04:59:16.467Z,13.19
2022-10-18T05:00:12.132Z,13.19
2022-10-18T05:01:20.498Z,13.19
2022-10-18T05:02:24.211Z,13.19
2022-10-18T05:03:59.442Z,13.19
2022-10-18T05:05:02.161Z,13.13
2022-10-18T05:06:41.884Z,13.13
2022-10-18T05:08:16.437Z,13.13
2022-10-18T05:09:19.194Z,13.13
2022-10-18T05:10:22.143Z,13.13
2022-10-18T05:11:56.721Z,13.13
2022-10-18T05:12:59.402Z,13.13
2022-10-18T05:14:02.136Z,13.06
2022-10-18T05:15:37.390Z,13.06
2022-10-18T05:16:40.061Z,13.06
2022-10-18T05:17:42.701Z,13.06
2022-10-18T05:19:17.295Z,13.06
2022-10-18T05:20:20.176Z,13.06
2022-10-18T05:21:22.868Z,13.06
2022-10-18T05:22:57.374Z,13.06
2022-10-18T05:24:00.016Z,13.06
2022-10-18T05:25:07.970Z,13.06
2022-10-18T05:26:42.433Z,13.00
2022-10-18T05:27:45.113Z,13.00
2022-10-18T05:29:20.153Z,13.00
2022-10-18T05:30:54.977Z,13.00
2022-10-18T05:31:57.667Z,12.94
2022-10-18T05:33:00.400Z,12.94
2022-10-18T05:34:34.962Z,12.88
2022-10-18T05:35:37.695Z,12.88
2022-10-18T05:36:40.400Z,12.88
2022-10-18T05:38:14.946Z,12.88
2022-10-18T05:39:18.382Z,12.88
2022-10-18T05:40:21.303Z,12.88
2022-10-18T05:41:55.770Z,12.88
2022-10-18T05:42:58.421Z,12.88
2022-10-18T05:44:01.116Z,12.81
2022-10-18T05:45:35.635Z,12.81
2022-10-18T05:46:38.382Z,12.81
2022-10-18T05:47:41.000Z,12.81
2022-10-18T05:49:15.540Z,12.81
2022-10-18T05:50:18.334Z,12.81
2022-10-18T05:51:26.316Z,12.81
2022-10-18T05:53:11.938Z,12.81
2022-10-18T05:54:33.715Z,12.75
2022-10-18T05:55:36.593Z,12.75
2022-10-18T05:57:11.256Z,12.75
2022-10-18T05:58:14.482Z,12.75
2022-10-18T05:59:17.285Z,12.69
2022-10-18T06:00:12.716Z,12.69
2022-10-18T06:01:15.374Z,12.69
2022-10-18T06:02:18.056Z,12.69
2022-10-18T06:03:52.879Z,12.69
2022-10-18T06:04:55.625Z,12.69
2022-10-18T06:05:58.323Z,12.63
2022-10-18T06:07:33.058Z,12.56
2022-10-18T06:08:38.074Z,12.56
2022-10-18T06:09:40.984Z,12.56
2022-10-18T06:11:15.431Z,12.56
2022-10-18T06:12:18.239Z,12.56
2022-10-18T06:13:20.880Z,12.56
2022-10-18T06:14:57.104Z,12.50
2022-10-18T06:15:59.752Z,12.44
2022-10-18T06:17:07.438Z,12.44
2022-10-18T06:18:45.462Z,12.44
2022-10-18T06:19:48.194Z,12.44
2022-10-18T06:20:50.976Z,12.44
2022-10-18T06:22:25.754Z,12.44
2022-10-18T06:23:28.654Z,12.44
2022-10-18T06:24:31.517Z,12.44
2022-10-18T06:26:09.529Z,12.44
2022-10-18T06:27:12.220Z,12.44
2022-10-18T06:28:15.673Z,12.44
2022-10-18T06:29:50.634Z,12.44
2022-10-18T06:30:53.350Z,12.44
2022-10-18T06:31:56.099Z,12.44
2022-10-18T06:33:30.697Z,12.44
2022-10-18T06:34:33.429Z,12.44
2022-10-18T06:35:36.301Z,12.44
2022-10-18T06:37:10.629Z,12.38
2022-10-18T06:38:14.071Z,12.38
2022-10-18T06:39:16.797Z,12.38
2022-10-18T06:40:51.372Z,12.38
2022-10-18T06:41:53.980Z,12.38
2022-10-18T06:44:50.247Z,12.38
2022-10-18T06:45:52.867Z,12.31
2022-10-18T06:46:55.697Z,12.31
2022-10-18T06:48:30.312Z,12.31
2022-10-18T06:49:33.013Z,12.25
2022-10-18T06:50:35.671Z,12.25
2022-10-18T06:52:10.498Z,12.25
2022-10-18T06:53:13.994Z,12.25
2022-10-18T06:54:51.459Z,12.19
2022-10-18T06:56:31.864Z,12.19
2022-10-18T06:57:34.809Z,12.19
2022-10-18T06:58:37.617Z,12.19
2022-10-18T07:00:12.347Z,12.13
2022-10-18T07:01:15.188Z,12.13
2022-10-18T07:02:18.550Z,12.13
2022-10-18T07:03:53.690Z,12.13
2022-10-18T07:04:56.463Z,12.19
2022-10-18T07:06:00.099Z,12.19
2022-10-18T07:07:35.141Z,12.19
2022-10-18T07:08:42.392Z,12.19
2022-10-18T07:09:45.115Z,12.25
2022-10-18T07:11:23.432Z,12.25
2022-10-18T07:12:26.217Z,12.19
2022-10-18T07:14:01.999Z,12.19
2022-10-18T07:15:50.070Z,12.25
2022-10-18T07:16:57.772Z,12.19
2022-10-18T07:18:00.440Z,12.25
2022-10-18T07:19:34.979Z,12.25
2022-10-18T07:20:37.803Z,12.25
2022-10-18T07:21:40.482Z,12.25
2022-10-18T07:23:16.564Z,12.31
2022-10-18T07:24:19.303Z,12.25
2022-10-18T07:25:23.901Z,12.25
2022-10-18T07:27:00.445Z,12.25
2022-10-18T07:28:03.303Z,12.25
2022-10-18T07:29:06.403Z,12.31
2022-10-18T07:30:40.883Z,12.31
2022-10-18T07:31:48.268Z,12.31
2022-10-18T07:32:50.863Z,12.31
2022-10-18T07:34:25.271Z,12.31
2022-10-18T07:35:28.054Z,12.31
2022-10-18T07:36:30.867Z,12.31
2022-10-18T07:38:11.162Z,12.31
2022-10-18T07:39:13.905Z,12.25
2022-10-18T07:40:16.579Z,12.31
2022-10-18T07:41:51.106Z,12.25
2022-10-18T07:42:53.912Z,12.25
2022-10-18T07:44:04.004Z,12.25
2022-10-18T07:45:38.594Z,12.25
2022-10-18T07:46:41.424Z,12.25
2022-10-18T07:47:44.049Z,12.25
2022-10-18T07:49:18.397Z,12.31
2022-10-18T07:50:21.119Z,12.31
2022-10-18T07:51:23.986Z,12.31
2022-10-18T07:52:58.575Z,12.31
2022-10-18T07:54:01.343Z,12.38
2022-10-18T07:55:04.266Z,12.38
2022-10-18T07:56:44.160Z,12.38
2022-10-18T07:57:47.048Z,12.38
2022-10-18T07:58:49.911Z,12.38
2022-10-18T08:00:11.171Z,12.44
2022-10-18T08:01:14.015Z,12.44
2022-10-18T08:02:17.371Z,12.50
2022-10-18T08:03:51.755Z,12.50
2022-10-18T08:05:02.648Z,12.56
2022-10-18T08:06:05.633Z,12.56
2022-10-18T08:07:40.118Z,12.56
2022-10-18T08:08:48.332Z,12.56
2022-10-18T08:09:51.200Z,12.63
2022-10-18T08:11:25.721Z,12.56
2022-10-18T08:12:28.507Z,12.56
2022-10-18T08:13:31.245Z,12.63
2022-10-18T08:15:05.761Z,12.56
2022-10-18T08:16:08.453Z,12.56
2022-10-18T08:17:11.346Z,12.63
2022-10-18T08:18:46.262Z,12.63
2022-10-18T08:19:58.549Z,12.69
2022-10-18T08:21:27.912Z,12.69
2022-10-18T08:23:02.461Z,12.69
2022-10-18T08:24:05.362Z,12.69
2022-10-18T08:25:08.036Z,12.75
2022-10-18T08:26:42.921Z,12.75
2022-10-18T08:27:45.941Z,12.81
2022-10-18T08:28:54.061Z,12.81
2022-10-18T08:30:55.543Z,12.81
2022-10-18T08:31:58.090Z,12.81
2022-10-18T08:33:00.805Z,12.81
2022-10-18T08:34:35.429Z,12.81
2022-10-18T08:35:43.348Z,12.88
2022-10-18T08:36:46.249Z,12.81
2022-10-18T08:38:21.203Z,12.88
2022-10-18T08:39:23.939Z,12.94
2022-10-18T08:40:26.669Z,12.94
2022-10-18T08:42:01.202Z,13.00
2022-10-18T08:43:04.533Z,13.06
2022-10-18T08:44:13.349Z,13.13
2022-10-18T08:46:22.119Z,13.19
2022-10-18T08:47:24.942Z,13.19
2022-10-18T08:48:28.395Z,13.25
2022-10-18T08:50:02.916Z,13.31
2022-10-18T08:51:05.681Z,13.31
2022-10-18T08:52:08.400Z,13.38
2022-10-18T08:53:43.241Z,13.44
2022-10-18T08:54:46.192Z,13.44
2022-10-18T08:55:48.885Z,13.50
2022-10-18T08:57:23.617Z,13.56
2022-10-18T08:58:27.317Z,13.63
2022-10-18T08:59:30.170Z,13.69
2022-10-18T09:00:11.682Z,13.69
2022-10-18T09:01:14.390Z,13.75
2022-10-18T09:02:17.796Z,13.81
2022-10-18T09:03:53.715Z,13.94
2022-10-18T09:04:56.584Z,13.94
2022-10-18T09:05:59.409Z,13.94
2022-10-18T09:07:40.341Z,14.00
2022-10-18T09:08:43.130Z,14.00
2022-10-18T09:09:46.062Z,14.06
2022-10-18T09:11:20.846Z,14.06
2022-10-18T09:12:23.843Z,14.06
2022-10-18T09:13:27.177Z,14.06
2022-10-18T09:15:01.877Z,14.13
2022-10-18T09:16:04.629Z,14.13
2022-10-18T09:17:07.353Z,14.19
2022-10-18T09:18:45.352Z,14.25
2022-10-18T09:19:48.047Z,14.25
2022-10-18T09:20:52.079Z,14.25
2022-10-18T09:22:26.625Z,14.31
2022-10-18T09:23:29.844Z,14.31
2022-10-18T09:24:32.554Z,14.19
2022-10-18T09:26:07.166Z,14.19
2022-10-18T09:27:09.907Z,14.13
2022-10-18T09:28:12.753Z,14.25
2022-10-18T09:29:48.481Z,14.31
2022-10-18T09:30:53.015Z,14.38
2022-10-18T09:31:57.510Z,14.44
2022-10-18T09:33:32.152Z,14.56
2022-10-18T09:34:35.013Z,14.56
2022-10-18T09:35:37.707Z,14.63
2022-10-18T09:37:12.325Z,14.63
2022-10-18T09:38:15.259Z,14.69
2022-10-18T09:39:18.231Z,14.69
2022-10-18T09:40:59.278Z,14.69
2022-10-18T09:42:01.980Z,14.69
2022-10-18T09:43:05.357Z,14.75
2022-10-18T09:44:39.791Z,14.75
2022-10-18T09:45:42.635Z,14.81
2022-10-18T09:46:45.424Z,14.81
2022-10-18T09:48:23.773Z,14.88
2022-10-18T09:49:26.664Z,14.94
2022-10-18T09:50:29.351Z,14.94
2022-10-18T09:52:03.854Z,15.06
2022-10-18T09:53:07.117Z,15.06
2022-10-18T09:54:09.959Z,15.13
2022-10-18T09:55:44.376Z,15.13
2022-10-18T09:56:47.267Z,15.19
2022-10-18T09:57:50.307Z,15.25
2022-10-18T09:59:25.018Z,15.25
2022-10-18T10:00:12.003Z,15.31
2022-10-18T10:01:14.793Z,15.31
2022-10-18T10:02:17.613Z,15.44
2022-10-18T10:03:52.831Z,15.44
2022-10-18T10:04:55.449Z,15.50
2022-10-18T10:05:58.395Z,15.56
2022-10-18T10:07:34.870Z,15.63
2022-10-18T10:08:38.460Z,15.69
2022-10-18T10:09:41.281Z,15.75
2022-10-18T10:11:15.683Z,15.75
2022-10-18T10:12:18.399Z,15.81
2022-10-18T10:13:21.202Z,15.88
2022-10-18T10:14:56.866Z,16.06
2022-10-18T10:16:01.763Z,16.06
2022-10-18T10:17:04.640Z,16.13
2022-10-18T10:18:39.988Z,16.13
2022-10-18T10:19:42.680Z,16.19
2022-10-18T10:20:45.355Z,16.25
2022-10-18T10:22:19.937Z,16.38
2022-10-18T10:23:22.754Z,16.44
2022-10-18T10:24:28.827Z,16.50
2022-10-18T10:26:05.868Z,16.63
2022-10-18T10:27:08.877Z,16.69
2022-10-18T10:28:12.054Z,16.75
2022-10-18T10:30:19.453Z,16.94
2022-10-18T10:31:22.278Z,16.94
2022-10-18T10:32:25.006Z,16.94
2022-10-18T10:33:59.623Z,16.94
2022-10-18T10:35:02.369Z,16.94
2022-10-18T10:36:39.912Z,17.00
2022-10-18T10:38:15.916Z,17.06
2022-10-18T10:39:18.793Z,17.06
2022-10-18T10:40:53.501Z,17.06
2022-10-18T10:42:28.097Z,17.13
2022-10-18T10:43:47.927Z,17.19
2022-10-18T10:44:50.657Z,17.25
2022-10-18T10:46:25.159Z,17.25
2022-10-18T10:47:27.923Z,17.25
2022-10-18T10:48:33.222Z,17.25
2022-10-18T10:50:41.445Z,17.19
2022-10-18T10:51:53.681Z,17.19
2022-10-18T10:53:19.913Z,17.13
2022-10-18T10:55:05.424Z,17.06
2022-10-18T10:56:31.869Z,17.00
2022-10-18T10:57:34.637Z,17.06
2022-10-18T10:59:09.341Z,17.00
2022-10-18T11:00:12.779Z,17.00
2022-10-18T11:01:15.526Z,17.06
2022-10-18T11:02:18.262Z,17.06
2022-10-18T11:04:18.131Z,17.13
2022-10-18T11:05:21.044Z,17.19
2022-10-18T11:06:23.834Z,17.19
2022-10-18T11:07:58.560Z,17.25
2022-10-18T11:09:04.552Z,17.25
2022-10-18T11:10:07.367Z,17.25
2022-10-18T11:11:42.138Z,17.25
2022-10-18T11:12:45.168Z,17.25
2022-10-18T11:13:53.331Z,17.25
2022-10-18T11:15:54.998Z,17.25
2022-10-18T11:16:57.783Z,17.31
2022-10-18T11:18:05.398Z,17.31
2022-10-18T11:19:39.934Z,17.38
2022-10-18T11:20:42.623Z,17.38
2022-10-18T11:21:45.929Z,17.44
2022-10-18T11:23:21.022Z,17.56
2022-10-18T11:24:23.766Z,17.63
2022-10-18T11:25:26.474Z,17.63
2022-10-18T11:27:01.130Z,17.56
2022-10-18T11:28:03.904Z,17.56
2022-10-18T11:29:07.084Z,17.56
2022-10-18T11:30:41.776Z,17.56
2022-10-18T11:31:44.477Z,17.56
2022-10-18T11:32:47.277Z,17.63
2022-10-18T11:34:53.363Z,17.69
2022-10-18T11:35:58.202Z,17.75
2022-10-18T11:37:28.647Z,17.81
2022-10-18T11:39:08.304Z,17.88
2022-10-18T11:40:11.073Z,17.94
2022-10-18T11:41:13.812Z,18.00
2022-10-18T11:42:48.515Z,18.06
2022-10-18T11:44:02.230Z,18.06
2022-10-18T11:45:05.615Z,18.06
2022-10-18T11:46:40.394Z,18.06
2022-10-18T11:47:43.265Z,18.06
2022-10-18T11:48:52.325Z,18.00
2022-10-18T11:50:26.793Z,18.00
2022-10-18T11:51:34.316Z,18.00
2022-10-18T11:53:05.269Z,18.00
2022-10-18T11:55:42.689Z,17.94
2022-10-18T11:56:45.440Z,17.94
2022-10-18T11:58:20.995Z,17.94
2022-10-18T11:59:23.738Z,17.94
2022-10-18T12:00:12.312Z,17.94
2022-10-18T12:01:15.380Z,17.88
2022-10-18T12:02:24.913Z,17.88
2022-10-18T12:04:00.801Z,17.81
2022-10-18T12:05:23.645Z,17.81
2022-10-18T12:06:27.377Z,17.81
2022-10-18T12:08:12.102Z,17.81
2022-10-18T12:09:14.797Z,17.81
2022-10-18T12:10:26.169Z,17.81
2022-10-18T12:12:37.316Z,17.88
2022-10-18T12:13:40.180Z,17.88
2022-10-18T12:14:42.956Z,17.94
2022-10-18T12:16:17.523Z,18.00
2022-10-18T12:18:32.884Z,17.94
2022-10-18T12:19:35.927Z,17.88
2022-10-18T12:21:10.391Z,17.75
2022-10-18T12:22:17.585Z,17.75
2022-10-18T12:23:20.969Z,17.75
2022-10-18T12:24:55.755Z,17.75
2022-10-18T12:25:58.396Z,17.75
2022-10-18T12:27:01.203Z,17.88
2022-10-18T12:28:35.974Z,17.88
2022-10-18T12:29:39.318Z,17.94
2022-10-18T12:30:46.729Z,17.94
2022-10-18T12:32:21.367Z,18.00
2022-10-18T12:34:03.268Z,18.00
2022-10-18T12:35:06.083Z,18.00
2022-10-18T12:36:40.717Z,18.06
2022-10-18T12:37:43.689Z,18.06
2022-10-18T12:38:46.508Z,18.00
2022-10-18T12:40:56.297Z,18.06
2022-10-18T12:41:59.279Z,18.06
2022-10-18T12:43:02.181Z,18.06
2022-10-18T12:44:36.629Z,18.00
2022-10-18T12:45:39.361Z,17.94
2022-10-18T12:46:48.249Z,17.94
2022-10-18T12:48:23.108Z,17.94
2022-10-18T12:49:26.250Z,17.88
2022-10-18T12:50:34.237Z,17.88
2022-10-18T12:52:08.705Z,17.88
2022-10-18T12:53:11.425Z,17.88
2022-10-18T12:54:14.252Z,17.88
2022-10-18T12:55:52.487Z,17.88
2022-10-18T12:56:59.912Z,17.94
2022-10-18T12:58:02.733Z,18.00
2022-10-18T12:59:37.500Z,18.13
2022-10-18T13:00:11.518Z,18.19
2022-10-18T13:01:14.425Z,18.19
2022-10-18T13:02:20.076Z,18.19
2022-10-18T13:03:55.775Z,18.19
2022-10-18T13:06:41.690Z,18.25
2022-10-18T13:08:16.921Z,18.25
2022-10-18T13:09:20.014Z,18.25
2022-10-18T13:10:22.744Z,18.25
2022-10-18T13:12:01.767Z,18.13
2022-10-18T13:13:14.189Z,18.13
2022-10-18T13:14:44.065Z,18.06
2022-10-18T13:16:52.616Z,18.00
2022-10-18T13:17:55.397Z,18.00
2022-10-18T13:18:58.227Z,18.00
2022-10-18T13:21:05.262Z,18.06
2022-10-18T13:22:07.990Z,18.06
2022-10-18T13:23:10.779Z,18.06
2022-10-18T13:24:49.990Z,18.06
2022-10-18T13:25:52.801Z,18.06
2022-10-18T13:27:04.156Z,18.00
2022-10-18T13:29:07.440Z,17.75
2022-10-18T13:30:10.427Z,17.69
2022-10-18T13:31:13.363Z,17.63
2022-10-18T13:32:48.171Z,17.63
2022-10-18T13:33:50.891Z,17.56
2022-10-18T13:34:53.689Z,17.56
2022-10-18T13:36:28.374Z,17.50
2022-10-18T13:37:31.230Z,17.50
2022-10-18T13:38:34.032Z,17.44
2022-10-18T13:40:08.747Z,17.38
2022-10-18T13:41:11.691Z,17.31
2022-10-18T13:42:21.395Z,17.31
2022-10-18T13:43:56.868Z,17.19
2022-10-18T13:44:59.754Z,17.13
2022-10-18T13:46:02.547Z,17.13
2022-10-18T13:47:37.143Z,17.13
2022-10-18T13:48:39.926Z,17.13
2022-10-18T13:49:42.885Z,17.06
2022-10-18T13:51:22.900Z,17.00
2022-10-18T13:52:25.793Z,17.00
2022-10-18T13:53:29.600Z,16.94
2022-10-18T13:55:04.580Z,16.81
2022-10-18T13:56:07.510Z,16.81
2022-10-18T13:57:10.311Z,16.75
2022-10-18T13:58:53.751Z,16.69
2022-10-18T14:00:12.440Z,16.63
2022-10-18T14:01:24.136Z,16.56
2022-10-18T14:02:50.930Z,16.50
2022-10-18T14:05:24.786Z,16.44
2022-10-18T14:06:28.511Z,16.38
2022-10-18T14:07:37.139Z,16.38
2022-10-18T14:09:26.238Z,16.31
2022-10-18T14:11:01.719Z,16.25
2022-10-18T14:12:04.937Z,16.25
2022-10-18T14:13:40.229Z,16.19
2022-10-18T14:14:43.172Z,16.13
2022-10-18T14:15:46.259Z,16.13
2022-10-18T14:17:21.125Z,16.13
2022-10-18T14:18:26.408Z,16.13
2022-10-18T14:19:30.793Z,16.13
2022-10-18T14:21:30.248Z,16.06
2022-10-18T14:22:34.522Z,16.06
2022-10-18T14:23:37.703Z,16.06
2022-10-18T14:25:12.165Z,16.00
2022-10-18T14:26:15.229Z,16.00
2022-10-18T14:27:18.338Z,16.00
2022-10-18T14:29:34.364Z,15.94
2022-10-18T14:30:37.657Z,15.88
2022-10-18T14:31:40.614Z,15.88
2022-10-18T14:33:15.608Z,15.88
2022-10-18T14:34:18.794Z,15.88
2022-10-18T14:35:32.453Z,15.88
2022-10-18T14:37:08.297Z,15.88
2022-10-18T14:38:11.532Z,15.81
2022-10-18T14:39:14.636Z,15.75
2022-10-18T14:40:49.422Z,15.69
2022-10-18T14:41:52.303Z,15.69
2022-10-18T14:42:55.124Z,15.69
2022-10-18T14:44:29.672Z,15.63
2022-10-18T14:45:36.433Z,15.56
2022-10-18T14:46:39.275Z,15.56
2022-10-18T14:48:14.685Z,15.50
2022-10-18T14:49:17.348Z,15.50
2022-10-18T14:50:20.335Z,15.50
2022-10-18T14:51:59.821Z,15.44
2022-10-18T14:53:15.926Z,15.44
2022-10-18T14:54:19.032Z,15.44
2022-10-18T14:55:58.078Z,15.44
2022-10-18T14:57:00.933Z,15.44
2022-10-18T14:58:03.739Z,15.44
2022-10-18T14:59:38.671Z,15.44
2022-10-18T15:00:12.190Z,15.44
2022-10-18T15:01:21.271Z,15.44
2022-10-18T15:02:24.615Z,15.38
2022-10-18T15:03:59.829Z,15.44
2022-10-18T15:05:09.128Z,15.44
2022-10-18T15:06:12.005Z,15.38
2022-10-18T15:07:46.710Z,15.38
2022-10-18T15:08:49.523Z,15.38
2022-10-18T15:09:52.423Z,15.31
2022-10-18T15:11:27.168Z,15.31
2022-10-18T15:12:40.992Z,15.31
2022-10-18T15:14:07.429Z,15.31
2022-10-18T15:15:42.026Z,15.31
2022-10-18T15:16:44.870Z,15.31
2022-10-18T15:17:47.599Z,15.25
2022-10-18T15:19:22.266Z,15.25
2022-10-18T15:20:25.748Z,15.25
2022-10-18T15:21:28.940Z,15.25
2022-10-18T15:23:38.958Z,15.25
2022-10-18T15:24:41.814Z,15.19
2022-10-18T15:25:44.629Z,15.13
2022-10-18T15:27:19.310Z,15.13
2022-10-18T15:28:23.068Z,15.06
2022-10-18T15:29:26.495Z,15.00
2022-10-18T15:31:01.209Z,15.00
2022-10-18T15:32:04.140Z,15.00
2022-10-18T15:33:07.586Z,14.94
2022-10-18T15:34:42.429Z,14.94
2022-10-18T15:35:45.471Z,14.88
2022-10-18T15:36:48.300Z,14.88
2022-10-18T15:38:22.887Z,14.88
2022-10-18T15:39:30.479Z,14.88
2022-10-18T15:40:33.202Z,14.81
2022-10-18T15:42:07.907Z,14.81
2022-10-18T15:43:10.818Z,14.75
2022-10-18T15:44:14.229Z,14.75
2022-10-18T15:45:49.293Z,14.75
2022-10-18T15:46:58.712Z,14.69
2022-10-18T15:48:01.667Z,14.69
2022-10-18T15:49:36.157Z,14.63
2022-10-18T15:50:39.044Z,14.63
2022-10-18T15:51:41.752Z,14.63
2022-10-18T15:53:23.679Z,14.63
2022-10-18T15:54:26.541Z,14.56
2022-10-18T15:55:29.602Z,14.56
2022-10-18T15:57:04.606Z,14.56
2022-10-18T15:58:12.390Z,14.50
2022-10-18T15:59:15.446Z,14.50
2022-10-18T16:00:11.845Z,14.50
2022-10-18T16:01:14.771Z,14.44
2022-10-18T16:02:18.515Z,14.44
2022-10-18T16:04:55.983Z,14.44
2022-10-18T16:05:41.070Z,14.44
2022-10-18T16:06:45.306Z,14.38
2022-10-18T16:07:48.038Z,14.38
2022-10-18T16:09:22.900Z,14.38
2022-10-18T16:10:25.973Z,14.38